Time;durP1;ratioP1;P1;durP2;ratioP2;P2;SDS_P1;SDS_P2;PMS_P1;PMS_P2;Temp;Humidity;BMP_temperature;BMP_pressure;BME280_temperature;BME280_humidity;BME280_pressure;Samples;Min_cycle;Max_cycle;Signal;HPM_P1;HPM_P2
2022/07/10 00:01:21;;;;;;;1.45;1.10;;;;;;;28.31;26.42;96915.38;5076327;28;20458;-29
2022/07/10 00:03:49;;;;;;;1.10;1.00;;;;;;;28.38;26.77;96915.47;5076175;28;20043;-28
2022/07/10 00:06:15;;;;;;;2.17;1.27;;;;;;;28.28;26.81;96913.66;5076059;28;20099;-28
2022/07/10 00:08:42;;;;;;;1.63;1.13;;;;;;;28.38;27.31;96926.63;5075895;28;20568;-29
2022/07/10 00:11:08;;;;;;;1.60;1.17;;;;;;;28.38;27.23;96921.06;5075895;28;20028;-29
2022/07/10 00:13:34;;;;;;;1.52;1.20;;;;;;;28.41;27.05;96920.00;5074098;28;20025;-29
2022/07/10 00:16:01;;;;;;;1.88;1.20;;;;;;;28.43;26.83;96920.22;5073694;28;20028;-29
2022/07/10 00:18:30;;;;;;;1.27;1.10;;;;;;;28.47;26.93;96936.63;5075756;28;20048;-29
2022/07/10 00:20:56;;;;;;;1.63;1.08;;;;;;;28.37;26.99;96929.97;5075180;28;20371;-30
2022/07/10 00:23:21;;;;;;;1.70;1.15;;;;;;;28.46;27.02;96930.28;5075559;28;20023;-29
2022/07/10 00:25:47;;;;;;;1.60;1.13;;;;;;;28.45;26.72;96933.63;5075904;28;20112;-29
2022/07/10 00:28:12;;;;;;;1.90;1.05;;;;;;;28.48;26.95;96929.75;5075596;28;20557;-29
2022/07/10 00:30:38;;;;;;;1.30;1.08;;;;;;;28.40;26.96;96931.69;5075507;28;20520;-29
2022/07/10 00:33:04;;;;;;;1.90;1.10;;;;;;;28.39;26.58;96925.34;5075544;28;20025;-28
2022/07/10 00:35:29;;;;;;;1.20;0.82;;;;;;;28.41;27.12;96925.56;5075496;28;20071;-29
2022/07/10 00:37:55;;;;;;;1.70;1.13;;;;;;;28.39;27.04;96936.50;5075427;28;20036;-29
2022/07/10 00:40:20;;;;;;;1.50;1.00;;;;;;;28.38;27.09;96932.22;5075467;28;20043;-29
2022/07/10 00:42:46;;;;;;;2.28;1.33;;;;;;;28.38;26.81;96929.44;5075225;28;20024;-29
2022/07/10 00:45:12;;;;;;;1.98;1.08;;;;;;;28.42;26.96;96932.66;5075215;28;20471;-29
2022/07/10 00:47:38;;;;;;;1.90;1.00;;;;;;;28.43;27.15;96920.22;5075298;28;20067;-28
2022/07/10 00:50:04;;;;;;;1.42;1.20;;;;;;;28.38;27.06;96931.47;5075013;28;20036;-28
2022/07/10 00:52:30;;;;;;;2.17;1.13;;;;;;;28.44;26.97;96930.06;5075132;28;20074;-29
2022/07/10 00:54:56;;;;;;;1.40;1.17;;;;;;;28.43;27.11;96928.59;5075146;28;20032;-29
2022/07/10 00:57:23;;;;;;;1.80;1.02;;;;;;;28.45;27.35;96936.41;5075209;28;20024;-29
2022/07/10 00:59:49;;;;;;;1.73;1.00;;;;;;;28.50;26.75;96936.31;5074982;28;20030;-29
2022/07/10 01:02:15;;;;;;;2.10;1.20;;;;;;;28.42;27.57;96937.50;5074833;28;20478;-29
2022/07/10 01:04:41;;;;;;;1.88;1.10;;;;;;;28.47;26.86;96931.03;5074727;28;20459;-29
2022/07/10 01:07:07;;;;;;;1.45;1.20;;;;;;;28.45;27.43;96925.25;5074609;28;20042;-28
2022/07/10 01:09:33;;;;;;;1.23;1.00;;;;;;;28.36;27.27;96926.41;5074817;28;20064;-28
2022/07/10 01:12:03;;;;;;;2.00;1.10;;;;;;;28.29;27.23;96923.53;5074780;28;20074;-29
2022/07/10 01:14:30;;;;;;;2.70;1.15;;;;;;;28.26;27.35;96916.22;5074588;28;20044;-30
2022/07/10 01:16:56;;;;;;;1.20;1.10;;;;;;;28.40;26.98;96912.16;5074617;28;20025;-29
2022/07/10 01:19:21;;;;;;;1.27;1.15;;;;;;;28.40;27.48;96912.16;5074690;28;20020;-29
2022/07/10 01:21:47;;;;;;;1.30;1.00;;;;;;;28.36;26.91;96911.72;5074407;28;20489;-29
2022/07/10 01:24:12;;;;;;;2.30;1.30;;;;;;;28.44;27.37;96918.16;5074709;28;20459;-29
2022/07/10 01:26:42;;;;;;;1.90;1.42;;;;;;;28.35;26.99;96926.94;5074491;28;20070;-29
2022/07/10 01:29:09;;;;;;;2.20;1.30;;;;;;;28.42;27.38;96920.75;5074333;28;20020;-30
2022/07/10 01:31:35;;;;;;;1.55;1.10;;;;;;;28.40;27.22;96926.09;5073603;28;20055;-28
2022/07/10 01:34:02;;;;;;;1.17;1.00;;;;;;;28.42;27.39;96920.75;5074414;28;20103;-29
2022/07/10 01:36:32;;;;;;;1.90;1.30;;;;;;;28.37;27.24;96913.22;5074131;28;20030;-29
2022/07/10 01:38:58;;;;;;;2.25;1.10;;;;;;;28.41;27.28;96917.22;5074306;28;20490;-28
2022/07/10 01:41:25;;;;;;;1.60;1.20;;;;;;;28.40;27.09;96918.50;5074315;28;20043;-29
2022/07/10 01:43:51;;;;;;;2.33;1.40;;;;;;;28.35;27.35;96913.00;5074155;28;20028;-29
2022/07/10 01:46:17;;;;;;;3.25;1.10;;;;;;;28.38;27.21;96914.72;5074152;28;20020;-29
2022/07/10 01:48:43;;;;;;;1.33;1.20;;;;;;;28.33;27.45;96913.53;5074177;28;20028;-29
2022/07/10 01:51:10;;;;;;;2.72;1.00;;;;;;;28.39;27.21;96919.03;5074358;28;20483;-28
2022/07/10 01:53:36;;;;;;;1.77;1.10;;;;;;;28.35;27.47;96913.00;5073918;28;20390;-29
2022/07/10 01:56:05;;;;;;;1.95;1.00;;;;;;;28.39;27.40;96908.63;5073843;28;20029;-29
2022/07/10 01:58:30;;;;;;;2.10;1.30;;;;;;;28.35;27.48;96908.19;5073758;28;20029;-28
2022/07/10 02:00:56;;;;;;;1.60;1.10;;;;;;;28.33;27.06;96919.09;5073865;28;20028;-29
2022/07/10 02:06:05;;;;;;;3.38;1.52;;;;;;;28.38;27.09;96906.34;5073917;28;20390;-29
2022/07/10 02:08:31;;;;;;;1.63;1.30;;;;;;;28.33;27.24;96901.63;5073449;28;20045;-28
2022/07/10 02:10:57;;;;;;;2.22;1.30;;;;;;;28.37;27.38;96904.84;5073868;28;20107;-29
2022/07/10 02:13:24;;;;;;;1.55;1.15;;;;;;;28.23;27.50;96904.06;5073590;28;20028;-28
2022/07/10 02:15:50;;;;;;;1.25;1.10;;;;;;;28.36;27.41;96900.56;5073697;28;20021;-29
2022/07/10 02:18:16;;;;;;;1.92;1.38;;;;;;;28.36;27.35;96903.34;5073725;28;20024;-29
2022/07/10 02:20:41;;;;;;;1.40;1.17;;;;;;;28.29;27.70;96895.63;5072335;28;20024;-29
2022/07/10 02:23:07;;;;;;;1.33;1.23;;;;;;;28.30;27.51;96903.47;5073310;28;20017;-29
2022/07/10 02:25:33;;;;;;;1.30;1.20;;;;;;;28.31;27.80;96904.97;5073494;28;20026;-28
2022/07/10 02:27:59;;;;;;;2.28;1.17;;;;;;;28.33;27.69;96898.84;5073630;28;20028;-29
2022/07/10 02:30:24;;;;;;;1.05;0.93;;;;;;;28.29;27.69;96904.00;5073284;28;20032;-29
2022/07/10 02:32:50;;;;;;;2.20;1.20;;;;;;;28.30;27.64;96908.28;5073568;28;20021;-28
2022/07/10 02:35:17;;;;;;;1.60;1.05;;;;;;;28.33;27.81;96907.19;5073465;28;20028;-28
2022/07/10 02:37:42;;;;;;;1.25;1.00;;;;;;;28.29;27.92;96901.19;5072084;28;20149;-29
2022/07/10 02:40:08;;;;;;;1.42;0.95;;;;;;;28.30;27.90;96908.28;5073467;28;20130;-29
2022/07/10 02:42:34;;;;;;;1.52;0.93;;;;;;;28.28;27.81;96905.28;5073225;28;20471;-28
2022/07/10 02:44:59;;;;;;;1.35;1.08;;;;;;;28.31;27.80;96907.00;5072922;28;20031;-29
2022/07/10 02:47:25;;;;;;;1.45;1.00;;;;;;;28.30;27.82;96909.03;5073292;28;20016;-28
2022/07/10 02:49:50;;;;;;;1.27;1.15;;;;;;;28.34;28.05;96908.69;5073243;28;20364;-29
2022/07/10 02:52:15;;;;;;;1.85;0.98;;;;;;;28.31;27.91;96904.22;5073104;28;20020;-29
2022/07/10 02:54:41;;;;;;;1.73;1.10;;;;;;;28.30;28.12;96906.25;5073017;28;20025;-28
2022/07/10 02:57:07;;;;;;;1.30;1.00;;;;;;;28.27;28.22;96903.78;5073087;28;20028;-29
2022/07/10 02:59:32;;;;;;;2.28;0.90;;;;;;;28.26;28.10;96899.47;5073243;28;20021;-28
2022/07/10 03:01:58;;;;;;;1.35;1.00;;;;;;;28.24;28.33;96905.59;5073048;28;20028;-29
2022/07/10 03:04:23;;;;;;;1.85;1.17;;;;;;;28.27;28.14;96906.56;5073081;28;20032;-29
2022/07/10 03:06:49;;;;;;;1.73;0.90;;;;;;;28.19;28.37;96898.81;5072764;28;20105;-29
2022/07/10 03:09:14;;;;;;;1.00;0.90;;;;;;;28.30;28.47;96902.72;5073055;28;20486;-29
2022/07/10 03:11:39;;;;;;;1.33;0.90;;;;;;;28.30;28.27;96906.25;5072949;28;20032;-28
2022/07/10 03:14:05;;;;;;;1.30;1.00;;;;;;;28.28;28.16;96905.28;5072940;28;20064;-29
2022/07/10 03:16:31;;;;;;;0.80;0.80;;;;;;;28.27;28.11;96898.94;5072904;28;20024;-29
2022/07/10 03:18:57;;;;;;;2.10;1.17;;;;;;;28.27;27.99;96898.19;5073024;28;20033;-28
2022/07/10 03:21:23;;;;;;;1.02;0.93;;;;;;;28.28;28.26;96900.44;5072916;28;20021;-29
2022/07/10 03:23:48;;;;;;;1.92;0.70;;;;;;;28.30;28.39;96897.13;5072158;28;20440;-30
2022/07/10 03:26:14;;;;;;;1.17;0.80;;;;;;;28.26;28.29;96888.31;5072710;28;20020;-29
2022/07/10 03:28:39;;;;;;;3.83;1.20;;;;;;;28.25;28.41;96898.72;5072669;28;20052;-29
2022/07/10 03:31:05;;;;;;;1.35;0.85;;;;;;;28.27;28.67;96898.94;5073035;28;20466;-28
2022/07/10 03:33:30;;;;;;;2.10;0.80;;;;;;;28.27;28.40;96892.63;5072733;28;20528;-29
2022/07/10 03:35:55;;;;;;;1.42;1.10;;;;;;;28.27;28.26;96892.63;5072732;28;20025;-28
2022/07/10 03:38:21;;;;;;;1.35;0.80;;;;;;;28.18;28.31;96896.56;5072743;28;20077;-29
2022/07/10 03:40:47;;;;;;;1.33;0.80;;;;;;;28.15;28.69;96897.59;5072591;28;20059;-29
2022/07/10 03:43:14;;;;;;;2.25;0.90;;;;;;;28.20;28.53;96894.75;5072632;28;20025;-29
2022/07/10 03:45:40;;;;;;;1.00;0.90;;;;;;;28.27;28.52;96893.38;5072640;28;20021;-29
2022/07/10 03:48:06;;;;;;;1.13;0.88;;;;;;;28.23;28.26;96887.34;5073047;28;20032;-29
2022/07/10 03:50:32;;;;;;;1.58;1.10;;;;;;;28.24;28.50;96889.59;5072803;28;20070;-29
2022/07/10 03:52:58;;;;;;;1.30;0.70;;;;;;;28.20;28.44;96891.19;5072649;28;20488;-29
2022/07/10 03:55:23;;;;;;;2.30;0.95;;;;;;;28.13;28.78;96889.78;5073685;28;20029;-29
2022/07/10 03:58:02;;;;;;;0.85;0.73;;;;;;;28.16;28.73;96883.13;5076583;28;20082;-30
2022/07/10 04:00:28;;;;;;;1.00;0.90;;;;;;;28.16;28.76;96877.56;5075965;28;20020;-29
2022/07/10 04:02:56;;;;;;;1.50;1.00;;;;;;;28.17;28.96;96886.69;5076080;28;20032;-29
2022/07/10 04:05:21;;;;;;;2.05;0.98;;;;;;;28.18;28.70;96880.59;5076129;28;20031;-28
2022/07/10 04:07:47;;;;;;;1.95;0.90;;;;;;;28.14;28.59;96885.69;5075839;28;20458;-29
2022/07/10 04:10:12;;;;;;;1.35;0.88;;;;;;;28.16;28.97;96882.38;5075775;28;20074;-29
2022/07/10 04:12:38;;;;;;;1.23;0.90;;;;;;;28.14;28.98;96882.91;5075956;28;20017;-28
2022/07/10 04:15:04;;;;;;;1.00;0.70;;;;;;;28.15;28.91;96883.66;5075775;28;20536;-28
2022/07/10 04:17:32;;;;;;;1.60;1.17;;;;;;;28.22;29.06;96886.59;5075903;28;20027;-28
2022/07/10 04:19:58;;;;;;;1.17;1.00;;;;;;;28.13;29.03;96880.66;5076243;28;20035;-29
2022/07/10 04:22:24;;;;;;;1.77;0.88;;;;;;;28.21;29.00;96885.09;5075692;28;20475;-29
2022/07/10 04:24:50;;;;;;;1.42;0.80;;;;;;;28.19;29.03;96870.91;5075761;28;20069;-29
2022/07/10 04:27:16;;;;;;;1.42;0.90;;;;;;;28.14;29.14;96871.00;5075863;28;20043;-29
2022/07/10 04:29:42;;;;;;;1.55;0.90;;;;;;;28.12;29.03;96876.38;5075536;28;20025;-29
2022/07/10 04:32:08;;;;;;;1.33;1.00;;;;;;;28.10;29.20;96882.47;5075658;28;20429;-28
2022/07/10 04:34:34;;;;;;;2.28;1.00;;;;;;;28.17;29.20;96881.84;5075283;28;20104;-29
2022/07/10 04:36:59;;;;;;;1.00;0.82;;;;;;;28.05;29.18;96880.53;5075393;28;20490;-29
2022/07/10 04:39:25;;;;;;;1.77;0.98;;;;;;;28.11;29.22;96870.03;5075554;28;20093;-29
2022/07/10 06:08:31;;;;;;;1.30;0.90;;;;;;;27.01;31.68;96885.09;5091180;27;20389;-31
2022/07/10 06:11:03;;;;;;;1.27;0.73;;;;;;;27.13;31.77;96886.47;5090679;28;20036;-30
2022/07/10 06:13:28;;;;;;;1.92;1.10;;;;;;;27.25;31.19;96889.09;5090800;28;20028;-30
2022/07/10 06:15:54;;;;;;;1.25;0.90;;;;;;;27.27;31.23;96884.50;5090600;28;20020;-31
2022/07/10 06:18:19;;;;;;;1.02;0.90;;;;;;;27.38;31.22;96883.59;5090626;28;20508;-30
2022/07/10 06:20:45;;;;;;;2.75;1.00;;;;;;;27.46;31.08;96882.44;5090361;28;20111;-30
2022/07/10 06:23:10;;;;;;;1.83;1.10;;;;;;;27.52;30.95;96883.13;5090573;28;20020;-30
2022/07/10 06:25:35;;;;;;;1.10;1.05;;;;;;;27.59;31.05;96878.25;5090667;28;20046;-30
2022/07/10 06:28:01;;;;;;;1.17;0.90;;;;;;;27.58;31.00;96890.66;5090340;28;20509;-30
2022/07/10 06:30:26;;;;;;;1.50;0.90;;;;;;;27.63;30.67;96879.44;5090154;28;20066;-30
2022/07/10 06:32:53;;;;;;;1.00;0.90;;;;;;;27.58;30.98;96885.09;5090113;28;20028;-30
2022/07/10 06:35:18;;;;;;;1.75;0.90;;;;;;;27.68;30.50;96889.00;5090184;28;20031;-30
2022/07/10 06:37:44;;;;;;;1.70;1.15;;;;;;;27.70;30.54;96880.84;5077358;28;20016;-30
2022/07/10 06:40:13;;;;;;;1.05;0.95;;;;;;;27.71;30.49;96887.94;5085264;28;20039;-32
2022/07/10 06:42:39;;;;;;;1.13;1.00;;;;;;;27.72;30.35;96898.53;5083625;28;20020;-31
2022/07/10 06:45:05;;;;;;;2.33;0.90;;;;;;;27.74;30.67;96893.19;5067863;28;20031;-31
2022/07/10 06:50:15;;;;;;;1.58;1.10;;;;;;;27.77;30.36;96892.16;5067692;28;20509;-31
2022/07/10 06:52:40;;;;;;;1.17;0.90;;;;;;;27.85;30.11;96897.84;5067727;28;20029;-32
2022/07/10 06:55:06;;;;;;;1.48;0.98;;;;;;;27.85;30.55;96892.25;5072561;28;20028;-31
2022/07/10 06:57:32;;;;;;;1.35;1.00;;;;;;;27.86;30.46;96904.91;5087683;28;20473;-31
2022/07/10 06:59:57;;;;;;;1.42;1.00;;;;;;;27.82;30.13;96898.91;5087800;28;20063;-30
2022/07/10 07:02:23;;;;;;;1.50;1.20;;;;;;;27.82;30.34;96901.69;5087480;28;20026;-30
2022/07/10 07:04:48;;;;;;;1.27;1.10;;;;;;;27.82;30.11;96894.06;5087432;28;20102;-31
2022/07/10 07:07:15;;;;;;;1.50;0.90;;;;;;;27.90;30.28;96897.00;5096901;28;20486;-31
2022/07/10 07:09:42;;;;;;;0.98;0.90;;;;;;;27.92;29.88;96897.22;5094022;28;20036;-31
2022/07/10 07:12:08;;;;;;;1.42;0.90;;;;;;;27.89;30.15;96903.88;5093945;28;20020;-30
2022/07/10 07:14:34;;;;;;;1.67;1.00;;;;;;;27.92;29.95;96896.47;5094120;28;20048;-30
2022/07/10 07:17:05;;;;;;;1.95;1.00;;;;;;;27.78;30.21;96893.66;5094178;28;20026;-30
2022/07/10 07:19:31;;;;;;;1.80;0.80;;;;;;;27.78;30.32;96899.22;5094148;28;20508;-31
2022/07/10 07:24:42;;;;;;;1.25;0.95;;;;;;;27.89;30.29;96892.72;5093988;28;20043;-31
2022/07/10 07:27:08;;;;;;;1.50;0.90;;;;;;;27.92;30.21;96893.69;5094024;28;20061;-30
2022/07/10 07:29:33;;;;;;;1.13;0.90;;;;;;;27.90;30.02;96888.66;5093899;28;20455;-30
2022/07/10 07:31:59;;;;;;;2.55;0.98;;;;;;;27.89;30.01;96893.47;5083971;28;20078;-30
2022/07/10 07:34:25;;;;;;;2.03;1.20;;;;;;;27.91;29.90;96884.56;5073829;28;20070;-30
2022/07/10 07:36:51;;;;;;;1.20;0.90;;;;;;;27.85;29.97;96881.13;5073397;28;20024;-30
2022/07/10 07:39:16;;;;;;;2.20;1.08;;;;;;;27.98;29.93;96875.56;5073604;28;20028;-30
2022/07/10 07:41:42;;;;;;;1.42;0.90;;;;;;;27.97;29.85;96870.53;5073545;28;20031;-30
2022/07/10 07:44:08;;;;;;;1.65;1.02;;;;;;;27.84;30.08;96874.03;5073529;28;20491;-30
2022/07/10 07:46:34;;;;;;;1.33;1.10;;;;;;;27.92;30.07;96874.19;5073506;28;20016;-30
2022/07/10 07:49:00;;;;;;;1.10;1.00;;;;;;;27.93;30.06;96882.00;5073136;28;20140;-31
2022/07/10 07:51:25;;;;;;;1.10;1.00;;;;;;;27.77;30.46;96874.66;5077011;28;20158;-30
2022/07/10 07:53:51;;;;;;;2.88;1.10;;;;;;;27.85;30.30;96876.28;5071877;28;20448;-30
2022/07/10 07:56:17;;;;;;;1.63;1.10;;;;;;;27.94;29.98;96877.94;5073253;28;20103;-31
2022/07/10 07:58:42;;;;;;;1.25;0.90;;;;;;;27.96;29.76;96880.94;5073355;28;20047;-30
2022/07/10 08:01:08;;;;;;;1.60;0.90;;;;;;;27.93;29.73;96887.59;5073047;28;20032;-31
2022/07/10 08:03:33;;;;;;;1.85;0.85;;;;;;;27.96;29.88;96886.50;5073140;28;20027;-31
2022/07/10 08:05:59;;;;;;;1.63;1.00;;;;;;;27.99;29.91;96879.13;5073117;28;20470;-32
2022/07/10 08:08:24;;;;;;;1.70;1.10;;;;;;;27.86;29.75;96880.59;5072840;28;20124;-31
2022/07/10 08:10:50;;;;;;;1.05;0.90;;;;;;;27.65;29.94;96874.09;5073022;28;20032;-30
2022/07/10 08:13:15;;;;;;;1.95;0.88;;;;;;;27.70;30.37;96875.28;5072362;28;20036;-30
2022/07/10 08:15:42;;;;;;;1.00;0.90;;;;;;;27.69;29.61;96879.38;5072930;28;20504;-30
2022/07/10 08:18:07;;;;;;;0.80;0.80;;;;;;;27.72;29.65;96884.63;5072794;28;20028;-30
2022/07/10 08:20:33;;;;;;;1.98;0.95;;;;;;;27.76;29.76;96885.06;5071680;28;20039;-31
2022/07/10 08:22:59;;;;;;;1.70;0.75;;;;;;;27.88;29.60;96885.63;5072825;28;20062;-30
2022/07/10 08:25:24;;;;;;;1.25;0.90;;;;;;;27.92;29.78;96874.19;5072516;28;20102;-30
2022/07/10 08:27:50;;;;;;;1.00;0.90;;;;;;;27.92;29.38;96877.72;5072763;28;20021;-30
2022/07/10 08:30:16;;;;;;;2.50;1.30;;;;;;;27.64;29.47;96878.16;5072577;28;20021;-30
2022/07/10 08:32:42;;;;;;;1.10;1.00;;;;;;;27.57;30.00;96866.88;5072548;28;20040;-30
2022/07/10 08:35:10;;;;;;;0.88;0.80;;;;;;;27.85;29.49;96875.53;5072291;28;20051;-30
2022/07/10 08:37:40;;;;;;;1.10;0.80;;;;;;;27.63;29.61;96873.13;5072154;28;20032;-30
2022/07/10 08:40:08;;;;;;;1.42;0.90;;;;;;;27.85;29.04;96872.75;5072433;28;20032;-31
2022/07/10 08:42:34;;;;;;;1.27;0.90;;;;;;;27.88;29.07;96872.44;5072319;28;20366;-30
2022/07/10 08:44:59;;;;;;;1.50;0.85;;;;;;;27.67;29.62;96865.22;5091896;28;20050;-30
2022/07/10 08:47:25;;;;;;;1.45;1.05;;;;;;;27.66;29.73;96867.25;5094581;28;20073;-32
2022/07/10 08:49:51;;;;;;;2.35;1.13;;;;;;;27.75;29.29;96866.09;5094417;28;20016;-30
2022/07/10 08:52:25;;;;;;;1.13;0.75;;;;;;;27.88;29.29;96868.91;5094213;28;20448;-33
2022/07/10 08:54:51;;;;;;;1.65;0.90;;;;;;;27.77;29.19;96869.09;5094359;28;20220;-30
2022/07/10 08:57:18;;;;;;;0.80;0.80;;;;;;;27.82;29.26;96865.44;5092836;28;20416;-30
2022/07/10 08:59:44;;;;;;;1.30;1.00;;;;;;;27.69;29.53;96857.06;5094151;28;20057;-30
2022/07/10 09:02:09;;;;;;;1.20;0.80;;;;;;;27.59;28.84;96876.19;5082681;28;20020;-30
2022/07/10 09:04:35;;;;;;;1.00;0.90;;;;;;;27.68;29.21;96855.56;5071943;28;20035;-30
2022/07/10 09:07:00;;;;;;;1.52;0.90;;;;;;;27.78;28.92;96859.44;5071602;28;20036;-30
2022/07/10 09:09:26;;;;;;;1.30;0.90;;;;;;;27.76;28.81;96864.81;5071886;28;20035;-30
2022/07/10 09:11:58;;;;;;;1.30;0.93;;;;;;;27.70;28.43;96872.50;5070838;28;20032;-30
2022/07/10 09:14:27;;;;;;;1.75;1.20;;;;;;;27.69;28.24;96868.22;5071516;28;20351;-31
2022/07/10 09:16:54;;;;;;;0.80;0.80;;;;;;;27.81;28.04;96858.41;5071826;28;20020;-30
2022/07/10 09:19:26;;;;;;;0.93;0.75;;;;;;;27.77;27.97;96863.53;5089931;28;20747;-30
2022/07/10 09:22:05;;;;;;;1.15;1.05;;;;;;;27.86;28.46;96869.44;5092010;28;20046;-30
2022/07/10 09:24:40;;;;;;;1.20;0.75;;;;;;;27.71;27.83;96874.00;5091083;28;20494;-30
2022/07/10 09:27:07;;;;;;;1.27;0.80;;;;;;;27.74;28.15;96864.56;5072143;28;20028;-31
2022/07/10 09:29:44;;;;;;;1.83;0.85;;;;;;;27.64;28.29;96867.00;5071659;28;20111;-32
2022/07/10 09:32:09;;;;;;;1.77;1.00;;;;;;;27.77;28.08;96869.09;5071350;28;20074;-30
2022/07/10 09:34:40;;;;;;;2.03;1.10;;;;;;;27.67;27.78;96873.56;5072797;28;20042;-30
2022/07/10 09:37:23;;;;;;;0.77;0.63;;;;;;;27.80;27.52;96866.00;5071197;28;20052;-30
2022/07/10 09:39:53;;;;;;;1.13;1.00;;;;;;;27.89;27.56;96859.28;5071717;28;20028;-30
2022/07/10 09:42:30;;;;;;;0.60;0.60;;;;;;;27.57;27.53;96866.88;5071904;28;20481;-30
2022/07/10 09:45:11;;;;;;;1.10;0.60;;;;;;;27.48;28.56;96868.75;5072760;28;20059;-30
2022/07/10 09:47:37;;;;;;;0.93;0.70;;;;;;;27.44;28.29;96859.97;5079824;28;20022;-30
2022/07/10 09:50:03;;;;;;;2.60;0.90;;;;;;;27.39;28.08;96869.13;5074983;28;20524;-30
2022/07/10 09:52:29;;;;;;;1.38;0.90;;;;;;;27.58;27.75;96863.56;5084582;28;20054;-31
2022/07/10 09:54:56;;;;;;;1.80;0.70;;;;;;;27.73;28.15;96868.66;5086092;28;20032;-30
2022/07/10 09:57:27;;;;;;;1.33;0.88;;;;;;;27.34;26.33;96872.75;5070715;28;20039;-30
2022/07/10 09:59:55;;;;;;;0.80;0.70;;;;;;;27.68;27.35;96866.72;5080141;28;20082;-31
2022/07/10 10:02:21;;;;;;;1.23;0.80;;;;;;;27.92;27.20;96868.59;5070962;28;20020;-30
2022/07/10 10:04:49;;;;;;;1.33;0.60;;;;;;;27.57;27.63;96872.47;5074775;28;20028;-31
2022/07/10 10:07:18;;;;;;;1.15;0.70;;;;;;;27.80;27.13;96866.00;5074707;28;20048;-31
2022/07/10 10:09:53;;;;;;;1.25;0.70;;;;;;;27.50;28.33;96868.22;5080495;28;20035;-30
2022/07/10 10:12:47;;;;;;;1.00;0.70;;;;;;;27.58;27.59;96865.59;5069563;28;20028;-30
2022/07/10 10:15:14;;;;;;;1.08;0.82;;;;;;;27.54;27.53;96863.84;5074592;28;20036;-30
2022/07/10 10:17:41;;;;;;;1.00;0.90;;;;;;;27.70;27.67;96858.56;5071007;28;20387;-30
2022/07/10 10:22:55;;;;;;;1.55;0.70;;;;;;;27.73;27.71;96857.50;5072049;28;20032;-30
2022/07/10 10:25:23;;;;;;;1.80;0.80;;;;;;;27.74;27.89;96854.19;5076731;28;20029;-30
2022/07/10 10:27:49;;;;;;;1.25;0.98;;;;;;;27.85;27.96;96853.25;5072003;28;20051;-30
2022/07/10 10:30:15;;;;;;;1.17;0.85;;;;;;;27.75;27.24;96844.53;5079194;28;20028;-30
2022/07/10 10:32:40;;;;;;;1.33;0.80;;;;;;;27.94;27.29;96843.75;5071047;28;20408;-30
2022/07/10 10:35:09;;;;;;;1.02;0.70;;;;;;;27.92;27.06;96851.88;5070851;28;20064;-30
2022/07/10 10:37:39;;;;;;;2.58;1.20;;;;;;;27.92;27.63;96855.41;5070567;28;20511;-30
2022/07/10 10:40:06;;;;;;;2.50;0.70;;;;;;;27.95;27.26;96845.22;5070762;28;20031;-31
2022/07/10 10:42:43;;;;;;;1.15;0.90;;;;;;;27.99;27.55;96845.66;5077017;28;20028;-30
2022/07/10 10:45:28;;;;;;;1.10;1.00;;;;;;;28.05;27.27;96847.09;5094858;28;20617;-30
2022/07/10 10:48:20;;;;;;;2.05;0.90;;;;;;;28.11;27.68;96841.41;5094773;28;20428;-30
2022/07/10 10:50:47;;;;;;;1.60;0.80;;;;;;;28.10;27.64;96843.44;5088393;28;20036;-30
2022/07/10 10:53:26;;;;;;;1.08;0.80;;;;;;;27.85;27.47;96836.53;5094944;28;20418;-31
2022/07/10 10:56:03;;;;;;;0.70;0.70;;;;;;;27.98;27.46;96833.75;5094728;28;20383;-31
2022/07/10 10:58:42;;;;;;;2.17;0.90;;;;;;;27.92;27.33;96824.00;5094508;28;20671;-31
2022/07/10 11:01:20;;;;;;;1.35;0.70;;;;;;;27.79;27.61;96821.94;5094237;28;20032;-30
2022/07/10 11:04:04;;;;;;;0.60;0.60;;;;;;;27.58;28.42;96821.00;5094553;28;20477;-31
2022/07/10 11:06:44;;;;;;;1.95;0.90;;;;;;;27.86;27.58;96819.28;5094408;28;20521;-30
2022/07/10 11:09:30;;;;;;;1.42;0.80;;;;;;;27.98;27.92;96821.84;5094307;28;20028;-30
2022/07/10 11:12:03;;;;;;;0.73;0.70;;;;;;;28.05;27.65;96816.41;5092276;28;20450;-30
2022/07/10 11:14:30;;;;;;;1.17;0.90;;;;;;;28.15;27.61;96816.75;5094061;28;20530;-30
2022/07/10 11:16:56;;;;;;;1.33;0.90;;;;;;;28.16;27.32;96810.63;5094189;28;20119;-30
2022/07/10 11:19:23;;;;;;;0.98;0.80;;;;;;;28.20;27.31;96816.66;5083895;28;20112;-30
2022/07/10 11:21:58;;;;;;;1.20;0.80;;;;;;;28.21;27.30;96811.81;5073790;28;20531;-31
2022/07/10 11:24:48;;;;;;;1.52;0.80;;;;;;;28.23;27.44;96804.44;5073823;28;20029;-30
2022/07/10 11:27:41;;;;;;;1.52;0.80;;;;;;;27.97;27.07;96815.53;5073484;28;20032;-30
2022/07/10 11:30:07;;;;;;;1.55;0.90;;;;;;;28.01;27.22;96802.03;5073555;28;20100;-30
2022/07/10 11:32:33;;;;;;;1.90;0.82;;;;;;;28.10;27.15;96796.03;5073735;28;20433;-30
2022/07/10 11:34:59;;;;;;;1.90;0.70;;;;;;;28.11;26.62;96803.09;5073695;28;20062;-31
2022/07/10 11:37:29;;;;;;;1.00;0.90;;;;;;;28.11;26.56;96797.53;5080201;28;20020;-30
2022/07/10 11:40:11;;;;;;;1.33;0.70;;;;;;;28.17;26.53;96794.66;5087120;28;20029;-30
2022/07/10 11:42:52;;;;;;;1.70;0.70;;;;;;;28.21;26.44;96798.63;5073692;28;20077;-30
2022/07/10 11:45:38;;;;;;;2.05;0.60;;;;;;;28.26;26.57;96796.28;5074751;28;20028;-30
2022/07/10 11:48:04;;;;;;;1.17;0.70;;;;;;;28.24;26.73;96794.78;5084980;28;20032;-30
2022/07/10 11:50:38;;;;;;;1.33;0.80;;;;;;;28.27;26.84;96797.78;5087507;28;20052;-30
2022/07/10 11:53:04;;;;;;;1.70;1.17;;;;;;;28.26;26.72;96790.72;5081062;28;20038;-31
2022/07/10 11:55:31;;;;;;;0.88;0.88;;;;;;;28.33;26.71;96784.47;5088717;28;20047;-31
2022/07/10 11:57:57;;;;;;;1.52;0.70;;;;;;;28.33;26.54;96785.22;5076194;28;20032;-30
2022/07/10 12:00:29;;;;;;;2.45;0.88;;;;;;;28.29;26.55;96779.22;5073105;28;20632;-30
2022/07/10 12:02:56;;;;;;;0.90;0.80;;;;;;;28.34;26.67;96770.00;5072697;28;20040;-30
2022/07/10 12:05:32;;;;;;;0.90;0.80;;;;;;;28.35;26.54;96770.75;5075214;28;20036;-31
2022/07/10 12:07:57;;;;;;;1.25;0.73;;;;;;;28.26;26.70;96771.19;5081811;28;20054;-31
2022/07/10 12:10:30;;;;;;;0.70;0.68;;;;;;;28.32;26.48;96766.97;5091540;28;20031;-30
2022/07/10 12:13:13;;;;;;;0.80;0.70;;;;;;;28.30;26.83;96766.78;5071755;28;20037;-30
2022/07/10 12:15:40;;;;;;;;;;;;;;;28.33;26.41;96767.72;5073294;28;20115;-30
2022/07/10 12:18:09;;;;;;;0.95;0.80;;;;;;;28.38;26.42;96761.31;5073775;28;19912;-31
2022/07/10 12:20:36;;;;;;;1.60;0.80;;;;;;;28.34;26.70;96753.25;5090719;28;20173;-31
2022/07/10 12:23:04;;;;;;;1.15;0.90;;;;;;;28.34;26.42;96756.03;5072788;28;20094;-31
2022/07/10 12:25:29;;;;;;;1.08;0.70;;;;;;;28.37;26.28;96757.00;5072051;28;20031;-30
2022/07/10 12:27:56;;;;;;;3.45;0.90;;;;;;;28.41;26.39;96758.19;5073786;28;20029;-31
2022/07/10 12:30:22;;;;;;;1.17;0.82;;;;;;;28.34;26.56;96747.69;5088439;28;20063;-30
2022/07/10 12:32:48;;;;;;;2.97;0.80;;;;;;;28.30;26.55;96740.94;5083689;28;20084;-31
2022/07/10 12:35:15;;;;;;;1.95;0.85;;;;;;;28.28;26.91;96735.91;5075277;28;20616;-30
2022/07/10 12:37:50;;;;;;;1.63;0.82;;;;;;;28.32;26.70;96738.34;5075900;28;20020;-30
2022/07/10 12:40:34;;;;;;;1.83;0.90;;;;;;;28.34;26.74;96742.09;5092729;28;20480;-30
2022/07/10 12:43:04;;;;;;;1.70;0.70;;;;;;;28.36;26.83;96744.34;5092318;28;20500;-30
2022/07/10 12:45:29;;;;;;;1.17;0.70;;;;;;;28.42;26.57;96739.41;5092317;28;20024;-30
2022/07/10 12:47:55;;;;;;;1.98;0.80;;;;;;;28.37;26.92;96741.03;5091440;28;20028;-30
2022/07/10 12:50:20;;;;;;;1.15;0.70;;;;;;;28.34;26.89;96744.88;5090641;28;20016;-31
2022/07/10 12:52:46;;;;;;;0.82;0.70;;;;;;;28.34;26.90;96744.13;5087237;28;20077;-30
2022/07/10 12:55:21;;;;;;;1.10;0.88;;;;;;;28.30;26.73;96744.47;5077564;28;20503;-30
2022/07/10 12:57:58;;;;;;;1.30;0.80;;;;;;;28.21;27.15;96740.06;5091703;28;20027;-30
2022/07/10 13:00:29;;;;;;;0.80;0.63;;;;;;;28.30;26.66;96749.31;5090863;28;20035;-30
2022/07/10 13:03:00;;;;;;;0.80;0.65;;;;;;;28.30;26.77;96747.28;5071872;28;20040;-30
2022/07/10 13:05:28;;;;;;;1.92;0.88;;;;;;;28.26;26.85;96746.84;5079365;28;20052;-31
2022/07/10 13:08:18;;;;;;;0.93;0.85;;;;;;;28.33;26.53;96742.63;5079766;28;20040;-31
2022/07/10 13:10:51;;;;;;;1.10;0.80;;;;;;;28.39;26.63;96743.28;5090259;28;20560;-32
2022/07/10 13:13:17;;;;;;;0.80;0.80;;;;;;;28.28;26.74;96744.25;5069869;28;20727;-30
2022/07/10 13:15:47;;;;;;;1.02;0.70;;;;;;;28.21;26.61;96740.06;5081229;28;20077;-30